createdAt,value
2018-11-22T12:17:49.075Z,25.57
2018-11-22T12:20:19.350Z,22.53
2018-11-22T12:22:50.632Z,24.53
2018-11-22T12:25:21.759Z,24.50
2018-11-22T12:27:52.949Z,21.93
2018-11-22T12:30:24.768Z,22.77
2018-11-22T12:32:59.659Z,27.30
2018-11-22T12:35:34.510Z,25.53
2018-11-22T12:40:44.441Z,24.73
2018-11-22T12:43:14.120Z,20.43
2018-11-22T12:45:44.038Z,28.97
2018-11-22T12:48:13.640Z,25.73
2018-11-22T12:50:43.603Z,25.80
2018-11-22T12:53:13.474Z,22.73
2018-11-22T12:55:43.087Z,25.10
2018-11-22T12:58:12.781Z,24.77
2018-11-22T13:00:42.595Z,26.13
2018-11-22T13:03:12.158Z,32.60
2018-11-22T13:05:41.852Z,19.63
2018-11-22T13:08:11.518Z,25.93
2018-11-22T13:10:41.332Z,30.20
2018-11-22T13:13:10.788Z,23.73
2018-11-22T13:15:40.486Z,29.03
2018-11-22T13:18:10.281Z,27.33
2018-11-22T13:20:40.027Z,24.87
2018-11-22T13:23:09.938Z,27.60
2018-11-22T13:25:39.706Z,25.20
2018-11-22T13:28:09.318Z,22.40
2018-11-22T13:30:38.935Z,20.43
2018-11-22T13:33:08.745Z,19.50
2018-11-22T13:35:38.447Z,18.33
2018-11-22T13:38:08.197Z,19.83
2018-11-22T13:40:37.872Z,21.10
2018-11-22T13:43:07.472Z,24.13
2018-11-22T13:45:37.386Z,20.80
2018-11-22T13:48:07.283Z,19.77
2018-11-22T13:50:41.955Z,21.93
2018-11-22T13:53:07.816Z,20.90
2018-11-22T13:55:37.354Z,19.40
2018-11-22T13:58:07.038Z,19.33
2018-11-22T14:00:36.826Z,16.80
2018-11-22T14:03:07.541Z,20.70
2018-11-22T14:05:37.030Z,17.77
2018-11-22T14:08:10.838Z,17.37
2018-11-22T14:10:40.364Z,17.37
2018-11-22T14:13:10.059Z,16.70
2018-11-22T14:15:40.669Z,17.53
2018-11-22T14:18:10.796Z,19.23
2018-11-22T14:20:40.279Z,22.77
2018-11-22T14:23:09.795Z,21.77
2018-11-22T14:25:39.729Z,18.63
2018-11-22T14:28:09.512Z,21.10
2018-11-22T14:30:39.227Z,21.50
2018-11-22T14:33:08.981Z,21.20
2018-11-22T14:35:38.665Z,21.10
2018-11-22T14:38:08.392Z,22.65
2018-11-22T14:40:37.974Z,21.43
2018-11-22T14:43:07.714Z,22.67
2018-11-22T14:45:37.621Z,20.37
2018-11-22T14:48:07.164Z,25.50
2018-11-22T14:50:39.665Z,22.47
2018-11-22T14:53:12.901Z,24.75
2018-11-22T14:55:42.616Z,23.73
2018-11-22T14:58:12.182Z,26.53
2018-11-22T15:00:41.783Z,23.07
2018-11-22T15:03:11.362Z,22.00
2018-11-22T15:05:41.114Z,25.17
2018-11-22T15:08:10.744Z,22.80
2018-11-22T15:10:40.559Z,28.03
2018-11-22T15:13:10.102Z,26.17
2018-11-22T15:15:40.348Z,23.50
2018-11-22T15:18:09.895Z,26.97
2018-11-22T15:20:39.474Z,24.43
2018-11-22T15:23:09.213Z,24.07
2018-11-22T15:25:38.821Z,23.22
2018-11-22T15:28:08.460Z,24.33
2018-11-22T15:30:38.144Z,23.13
2018-11-22T15:33:07.824Z,24.43
2018-11-22T15:35:37.703Z,27.50
2018-11-22T15:38:07.475Z,27.37
2018-11-22T15:40:37.267Z,25.33
2018-11-22T15:43:07.641Z,22.40
2018-11-22T15:45:37.433Z,24.07
2018-11-22T15:48:07.290Z,28.53
2018-11-22T15:50:37.168Z,27.60
2018-11-22T15:53:06.969Z,24.97
2018-11-22T15:55:36.808Z,26.70
2018-11-22T15:58:06.597Z,26.50
2018-11-22T16:00:36.324Z,25.13
2018-11-22T16:03:05.855Z,26.07
2018-11-22T16:05:35.540Z,25.83
2018-11-22T16:08:05.488Z,24.10
2018-11-22T16:10:36.439Z,24.10
2018-11-22T16:13:09.510Z,22.43
2018-11-22T16:15:42.091Z,26.37
2018-11-22T16:18:11.524Z,24.00
2018-11-22T16:20:41.155Z,21.33
2018-11-22T16:23:10.724Z,22.53
2018-11-22T16:25:45.884Z,28.43
2018-11-22T16:28:15.404Z,24.90
2018-11-22T16:30:45.230Z,27.53
2018-11-22T16:33:14.901Z,26.00
2018-11-22T16:35:44.728Z,23.80
2018-11-22T16:38:14.439Z,27.97
2018-11-22T16:40:44.037Z,26.87
2018-11-22T16:43:13.685Z,31.00
2018-11-22T16:45:43.632Z,34.23
2018-11-22T16:48:14.090Z,31.60
2018-11-22T16:50:44.162Z,37.93
2018-11-22T16:53:13.831Z,35.80
2018-11-22T16:55:43.551Z,36.23
2018-11-22T16:58:13.059Z,31.07
2018-11-22T17:00:42.907Z,40.13
2018-11-22T17:03:13.763Z,37.93
2018-11-22T17:05:43.897Z,36.03
2018-11-22T17:08:13.967Z,32.87
2018-11-22T17:10:43.511Z,30.67
2018-11-22T17:13:13.268Z,36.07
2018-11-22T17:15:43.235Z,36.87
2018-11-22T17:18:12.929Z,38.42
2018-11-22T17:20:42.934Z,36.17
2018-11-22T17:23:12.648Z,31.60
2018-11-22T17:25:42.433Z,30.43
2018-11-22T17:28:12.383Z,26.77
2018-11-22T17:30:43.656Z,30.00
2018-11-22T17:33:13.242Z,23.20
2018-11-22T17:35:43.273Z,30.80
2018-11-22T17:38:13.614Z,30.83
2018-11-22T17:40:44.790Z,23.00
2018-11-22T17:43:14.454Z,23.37
2018-11-22T17:45:46.151Z,24.00
2018-11-22T17:48:15.894Z,30.47
2018-11-22T17:50:46.837Z,25.68
2018-11-22T17:53:16.525Z,27.73
2018-11-22T17:55:46.222Z,27.90
2018-11-22T17:58:16.372Z,31.00
2018-11-22T18:00:49.458Z,28.27
2018-11-22T18:03:19.178Z,23.90
2018-11-22T18:05:49.150Z,35.17
2018-11-22T18:08:18.969Z,29.57
2018-11-22T18:10:49.383Z,27.87
2018-11-22T18:13:19.399Z,28.20
2018-11-22T18:15:54.027Z,29.13
2018-11-22T18:18:23.793Z,30.60
2018-11-22T18:20:53.572Z,30.43
2018-11-22T18:23:23.329Z,31.60
2018-11-22T18:25:53.482Z,27.77
2018-11-22T18:28:23.953Z,30.00
2018-11-22T18:30:53.619Z,31.77
2018-11-22T18:33:24.000Z,30.43
2018-11-22T18:35:53.628Z,28.07
2018-11-22T18:38:23.277Z,28.27
2018-11-22T18:40:52.785Z,28.23
2018-11-22T18:43:22.720Z,26.97
2018-11-22T18:45:52.332Z,25.17
2018-11-22T18:48:22.182Z,26.00
2018-11-22T18:50:51.936Z,23.23
2018-11-22T18:53:21.653Z,25.47
2018-11-22T18:55:51.259Z,24.67
2018-11-22T18:58:20.961Z,27.13
2018-11-22T19:00:50.449Z,27.30
2018-11-22T19:03:20.614Z,29.57
2018-11-22T19:05:50.098Z,28.60
2018-11-22T19:08:20.055Z,30.83
2018-11-22T19:10:49.968Z,26.07
2018-11-22T19:13:19.877Z,31.40
2018-11-22T19:15:49.901Z,28.87
2018-11-22T19:18:19.927Z,30.47
2018-11-22T19:20:49.816Z,29.83
2018-11-22T19:23:19.849Z,30.53
2018-11-22T19:28:17.179Z,32.50
2018-11-22T19:30:47.852Z,31.80
2018-11-22T19:33:19.135Z,30.67
2018-11-22T19:35:50.701Z,30.07
2018-11-22T19:40:51.721Z,31.93
2018-11-22T19:43:21.434Z,40.33
2018-11-22T19:45:51.611Z,36.53
2018-11-22T19:48:21.312Z,33.03
2018-11-22T19:50:51.137Z,34.97
2018-11-22T19:53:20.860Z,32.70
2018-11-22T19:55:50.681Z,33.53
2018-11-22T19:58:20.405Z,33.43
2018-11-22T20:00:50.093Z,31.33
2018-11-22T20:03:20.008Z,33.67
2018-11-22T20:05:49.791Z,31.33
2018-11-22T20:08:19.970Z,31.70
2018-11-22T20:10:50.054Z,39.95
2018-11-22T20:13:20.355Z,36.50
2018-11-22T20:15:50.924Z,35.67
2018-11-22T20:18:19.913Z,35.53
2018-11-22T20:20:50.168Z,33.27
2018-11-22T20:23:21.868Z,33.27
2018-11-22T20:25:49.062Z,38.83
2018-11-22T20:28:18.755Z,35.83
2018-11-22T20:30:48.484Z,35.07
2018-11-22T20:33:18.955Z,33.10
2018-11-22T20:35:48.432Z,35.73
2018-11-22T20:38:18.063Z,34.17
2018-11-22T20:40:47.796Z,33.27
2018-11-22T20:45:47.181Z,30.63
2018-11-22T20:48:17.017Z,27.40
2018-11-22T20:50:46.865Z,27.07
2018-11-22T20:53:16.581Z,28.75
2018-11-22T20:55:46.181Z,25.40
2018-11-22T20:58:15.865Z,23.87
2018-11-22T21:00:45.500Z,17.60
2018-11-22T21:05:46.303Z,14.17
2018-11-22T21:08:15.946Z,21.65
2018-11-22T21:10:45.678Z,15.70
2018-11-22T21:13:15.318Z,13.40
2018-11-22T21:18:15.210Z,13.83
2018-11-22T21:20:45.047Z,12.40
2018-11-22T21:23:14.946Z,11.67
2018-11-22T21:25:45.693Z,11.33
2018-11-22T21:28:15.601Z,11.57
2018-11-22T21:30:51.875Z,10.83
2018-11-22T21:33:21.553Z,14.30
2018-11-22T21:35:51.191Z,10.93
2018-11-22T21:40:51.757Z,11.30
2018-11-22T21:45:49.296Z,10.93
2018-11-22T21:48:19.304Z,11.70
2018-11-22T21:50:49.015Z,10.67
2018-11-22T21:53:18.753Z,11.23
2018-11-22T21:55:48.428Z,12.23
2018-11-22T21:58:18.065Z,12.07
2018-11-22T22:00:47.889Z,11.97
2018-11-22T22:03:17.466Z,12.30
2018-11-22T22:05:47.152Z,12.97
2018-11-22T22:08:16.604Z,12.63
2018-11-22T22:10:46.200Z,12.03
2018-11-22T22:13:15.992Z,13.87
2018-11-22T22:15:46.240Z,13.07
2018-11-22T22:18:21.191Z,12.23
2018-11-22T22:20:46.060Z,13.40
2018-11-22T22:23:15.889Z,12.60
2018-11-22T22:25:45.562Z,12.60
2018-11-22T22:28:15.225Z,15.93
2018-11-22T22:30:44.832Z,13.27
2018-11-22T22:33:14.809Z,12.50
2018-11-22T22:35:44.671Z,12.70
2018-11-22T22:40:44.179Z,13.57
2018-11-22T22:45:41.707Z,14.30
2018-11-22T22:48:12.506Z,13.83
2018-11-22T22:50:42.147Z,14.50
2018-11-22T22:53:12.423Z,14.63
2018-11-22T22:55:42.413Z,13.90
2018-11-22T22:58:12.016Z,14.10
2018-11-22T23:03:09.179Z,13.93
2018-11-22T23:05:38.935Z,13.90
2018-11-22T23:08:08.632Z,14.83
2018-11-22T23:10:38.338Z,14.87
2018-11-22T23:13:08.262Z,15.30
2018-11-22T23:15:38.163Z,18.67
2018-11-22T23:18:07.623Z,15.40
2018-11-22T23:20:38.094Z,13.20
2018-11-22T23:23:07.958Z,15.63
2018-11-22T23:25:37.490Z,14.53
2018-11-22T23:28:07.040Z,15.17
2018-11-22T23:33:06.731Z,15.90
2018-11-22T23:35:36.440Z,16.73
2018-11-22T23:38:06.063Z,15.83
2018-11-22T23:43:04.178Z,17.73
2018-11-22T23:45:34.244Z,17.17
2018-11-22T23:48:03.976Z,16.63
2018-11-22T23:50:33.926Z,16.83
2018-11-22T23:55:31.487Z,19.17
2018-11-22T23:58:01.743Z,19.40
